createdAt,value
2019-02-19T00:00:20.250Z,0.00
2019-02-19T00:01:31.417Z,0.00
2019-02-19T00:02:42.635Z,0.00
2019-02-19T00:03:53.787Z,0.00
2019-02-19T00:05:04.926Z,0.00
2019-02-19T00:06:16.098Z,0.00
2019-02-19T00:07:27.266Z,0.00
2019-02-19T00:08:38.428Z,0.00
2019-02-19T00:09:49.600Z,0.00
2019-02-19T00:11:00.758Z,0.00
2019-02-19T00:12:11.424Z,0.00
2019-02-19T00:13:22.627Z,0.00
2019-02-19T00:14:33.791Z,0.00
2019-02-19T00:15:44.949Z,0.00
2019-02-19T00:16:56.098Z,0.00
2019-02-19T00:18:08.245Z,0.00
2019-02-19T00:19:19.388Z,0.00
2019-02-19T00:20:30.059Z,0.00
2019-02-19T00:21:41.212Z,0.00
2019-02-19T00:22:52.365Z,0.00
2019-02-19T00:24:03.523Z,0.00
2019-02-19T00:25:14.680Z,0.00
2019-02-19T00:26:25.827Z,0.00
2019-02-19T00:27:36.977Z,0.00
2019-02-19T00:28:48.128Z,0.00
2019-02-19T00:29:59.279Z,0.00
2019-02-19T00:31:10.444Z,0.00
2019-02-19T00:32:21.608Z,0.00
2019-02-19T00:33:32.755Z,0.00
2019-02-19T00:34:43.904Z,0.00
2019-02-19T00:35:55.055Z,0.00
2019-02-19T00:37:06.221Z,0.00
2019-02-19T00:38:17.366Z,0.00
2019-02-19T00:39:28.515Z,0.00
2019-02-19T00:40:39.668Z,0.00
2019-02-19T00:41:50.325Z,0.00
2019-02-19T00:43:01.474Z,0.00
2019-02-19T00:44:12.698Z,0.00
2019-02-19T00:45:23.863Z,0.00
2019-02-19T00:46:35.018Z,0.00
2019-02-19T00:47:46.171Z,0.00
2019-02-19T00:48:57.326Z,0.00
2019-02-19T00:50:08.476Z,0.00
2019-02-19T00:51:19.636Z,0.00
2019-02-19T00:52:30.793Z,0.00
2019-02-19T00:53:41.945Z,0.00
2019-02-19T00:54:53.092Z,0.00
2019-02-19T00:56:03.755Z,0.00
2019-02-19T00:57:15.214Z,0.00
2019-02-19T00:58:26.367Z,0.00
2019-02-19T00:59:37.522Z,0.00
2019-02-19T01:00:48.658Z,0.00
2019-02-19T01:01:59.812Z,0.00
2019-02-19T01:03:10.968Z,0.00
2019-02-19T01:04:22.122Z,0.00
2019-02-19T01:05:33.276Z,0.00
2019-02-19T01:06:44.418Z,0.00
2019-02-19T01:07:55.574Z,0.00
2019-02-19T01:09:06.722Z,0.00
2019-02-19T01:10:17.865Z,0.00
2019-02-19T01:11:29.013Z,0.00
2019-02-19T01:12:40.175Z,0.00
2019-02-19T01:13:50.820Z,0.00
2019-02-19T01:15:01.991Z,0.00
2019-02-19T01:16:13.123Z,0.00
2019-02-19T01:17:24.284Z,0.00
2019-02-19T01:18:35.462Z,0.00
2019-02-19T01:19:46.642Z,0.00
2019-02-19T01:20:57.796Z,0.00
2019-02-19T01:22:08.955Z,0.00
2019-02-19T01:23:20.111Z,0.00
2019-02-19T01:24:31.251Z,0.00
2019-02-19T01:25:42.403Z,0.00
2019-02-19T01:26:53.558Z,0.00
2019-02-19T01:28:05.718Z,0.00
2019-02-19T01:29:17.357Z,0.00
2019-02-19T01:30:28.646Z,0.00
2019-02-19T01:31:39.769Z,0.00
2019-02-19T01:32:50.922Z,0.00
2019-02-19T01:34:02.087Z,0.00
2019-02-19T01:35:13.241Z,0.00
2019-02-19T01:36:24.392Z,0.00
2019-02-19T01:37:35.532Z,0.00
2019-02-19T01:38:46.719Z,0.00
2019-02-19T01:39:57.862Z,0.00
2019-02-19T01:41:09.001Z,0.00
2019-02-19T01:42:20.155Z,0.00
2019-02-19T01:43:31.303Z,0.00
2019-02-19T01:44:42.658Z,0.00
2019-02-19T01:45:53.800Z,0.00
2019-02-19T01:47:05.937Z,0.00
2019-02-19T01:48:17.099Z,0.00
2019-02-19T01:49:28.267Z,0.00
2019-02-19T01:50:39.411Z,0.00
2019-02-19T01:51:50.635Z,0.00
2019-02-19T01:53:01.791Z,0.00
2019-02-19T01:54:12.921Z,0.00
2019-02-19T01:55:24.066Z,0.00
2019-02-19T01:56:35.214Z,0.00
2019-02-19T01:57:46.392Z,0.00
2019-02-19T01:58:57.528Z,0.00
2019-02-19T02:00:08.708Z,0.00
2019-02-19T02:01:19.885Z,0.00
2019-02-19T02:02:31.024Z,0.00
2019-02-19T02:03:42.164Z,0.00
2019-02-19T02:04:53.313Z,0.00
2019-02-19T02:06:04.966Z,0.00
2019-02-19T02:07:16.117Z,0.00
2019-02-19T02:08:26.780Z,0.00
2019-02-19T02:09:37.918Z,0.00
2019-02-19T02:10:49.075Z,0.00
2019-02-19T02:12:00.217Z,0.00
2019-02-19T02:13:11.364Z,0.00
2019-02-19T02:14:22.527Z,0.00
2019-02-19T02:15:33.659Z,0.00
2019-02-19T02:16:44.806Z,0.00
2019-02-19T02:17:55.946Z,0.00
2019-02-19T02:19:07.104Z,0.00
2019-02-19T02:20:18.241Z,0.00
2019-02-19T02:21:29.374Z,0.00
2019-02-19T02:22:40.617Z,0.00
2019-02-19T02:23:51.767Z,0.00
2019-02-19T02:25:02.902Z,0.00
2019-02-19T02:26:14.064Z,0.00
2019-02-19T02:27:25.202Z,0.00
2019-02-19T02:28:36.336Z,0.00
2019-02-19T02:29:47.489Z,0.00
2019-02-19T02:30:58.627Z,0.00
2019-02-19T02:32:09.780Z,0.00
2019-02-19T02:33:20.421Z,0.00
2019-02-19T02:34:31.599Z,0.00
2019-02-19T02:35:42.740Z,0.00
2019-02-19T02:36:53.885Z,0.00
2019-02-19T02:38:05.018Z,0.00
2019-02-19T02:39:16.159Z,0.00
2019-02-19T02:40:27.306Z,0.00
2019-02-19T02:41:38.451Z,0.00
2019-02-19T02:42:49.592Z,0.00
2019-02-19T02:44:00.757Z,0.00
2019-02-19T02:45:11.921Z,0.00
2019-02-19T02:46:23.019Z,0.00
2019-02-19T02:47:33.724Z,0.00
2019-02-19T02:48:44.857Z,0.00
2019-02-19T02:49:56.022Z,0.00
2019-02-19T02:51:07.166Z,0.00
2019-02-19T02:52:19.302Z,0.00
2019-02-19T02:53:29.942Z,0.00
2019-02-19T02:54:41.097Z,0.00
2019-02-19T02:55:52.219Z,0.00
2019-02-19T02:57:02.884Z,0.00
2019-02-19T02:58:14.019Z,0.00
2019-02-19T02:59:25.185Z,0.00
2019-02-19T03:00:36.303Z,0.00
2019-02-19T03:01:46.944Z,0.00
2019-02-19T03:02:58.091Z,0.00
2019-02-19T03:04:09.237Z,0.00
2019-02-19T03:05:20.372Z,0.00
2019-02-19T03:06:32.629Z,0.00
2019-02-19T03:07:45.009Z,0.00
2019-02-19T03:08:56.156Z,0.00
2019-02-19T03:10:07.303Z,0.00
2019-02-19T03:11:18.444Z,0.00
2019-02-19T03:12:29.621Z,0.00
2019-02-19T03:13:40.751Z,0.00
2019-02-19T03:14:51.894Z,0.00
2019-02-19T03:16:02.850Z,0.00
2019-02-19T03:17:13.187Z,0.00
2019-02-19T03:18:24.329Z,0.00
2019-02-19T03:19:35.625Z,0.00
2019-02-19T03:20:46.759Z,0.00
2019-02-19T03:21:57.401Z,0.00
2019-02-19T03:23:08.530Z,0.00
2019-02-19T03:24:19.701Z,0.00
2019-02-19T03:25:30.854Z,0.00
2019-02-19T03:26:42.002Z,0.00
2019-02-19T03:27:53.149Z,0.00
2019-02-19T03:29:04.287Z,0.00
2019-02-19T03:30:15.423Z,0.00
2019-02-19T03:31:26.577Z,0.00
2019-02-19T03:32:37.713Z,0.00
2019-02-19T03:33:48.858Z,0.00
2019-02-19T03:35:00.010Z,0.00
2019-02-19T03:36:11.148Z,0.00
2019-02-19T03:37:22.305Z,0.00
2019-02-19T03:38:33.442Z,0.00
2019-02-19T03:39:44.574Z,0.00
2019-02-19T03:40:55.737Z,0.00
2019-02-19T03:42:06.370Z,0.00
2019-02-19T03:43:17.618Z,0.00
2019-02-19T03:44:28.756Z,0.00
2019-02-19T03:45:39.891Z,0.00
2019-02-19T03:46:51.058Z,0.00
2019-02-19T03:48:02.213Z,0.00
2019-02-19T03:49:14.356Z,0.00
2019-02-19T03:50:25.616Z,0.00
2019-02-19T03:51:36.769Z,0.00
2019-02-19T03:52:47.911Z,0.00
2019-02-19T03:53:59.064Z,0.00
2019-02-19T03:55:10.212Z,0.00
2019-02-19T03:56:20.857Z,0.00
2019-02-19T03:57:32.029Z,0.00
2019-02-19T03:58:43.175Z,0.00
2019-02-19T03:59:54.310Z,0.00
2019-02-19T04:01:05.464Z,0.00
2019-02-19T04:02:16.602Z,0.00
2019-02-19T04:03:27.758Z,0.00
2019-02-19T04:04:38.885Z,0.00
2019-02-19T04:05:50.013Z,0.00
2019-02-19T04:07:01.155Z,0.00
2019-02-19T04:08:12.315Z,0.00
2019-02-19T04:09:23.446Z,0.00
2019-02-19T04:10:34.078Z,0.00
2019-02-19T04:11:45.214Z,0.00
2019-02-19T04:12:57.351Z,0.00
2019-02-19T04:14:08.482Z,0.00
2019-02-19T04:15:19.645Z,0.00
2019-02-19T04:16:31.780Z,0.00
2019-02-19T04:17:42.915Z,0.00
2019-02-19T04:18:54.059Z,0.00
2019-02-19T04:20:05.204Z,0.00
2019-02-19T04:21:16.346Z,0.00
2019-02-19T04:22:27.633Z,0.00
2019-02-19T04:23:38.760Z,0.00
2019-02-19T04:24:49.895Z,0.00
2019-02-19T04:26:01.044Z,0.00
2019-02-19T04:27:12.195Z,0.00
2019-02-19T04:28:23.363Z,0.00
2019-02-19T04:29:34.467Z,0.00
2019-02-19T04:30:45.113Z,0.00
2019-02-19T04:31:55.757Z,0.00
2019-02-19T04:33:06.901Z,0.00
2019-02-19T04:34:18.025Z,0.00
2019-02-19T04:35:29.171Z,0.00
2019-02-19T04:36:41.307Z,0.00
2019-02-19T04:37:52.445Z,0.00
2019-02-19T04:39:03.614Z,0.00
2019-02-19T04:40:14.258Z,0.00
2019-02-19T04:41:25.389Z,0.00
2019-02-19T04:42:36.539Z,0.00
2019-02-19T04:43:47.678Z,0.00
2019-02-19T04:44:58.807Z,0.00
2019-02-19T04:46:09.952Z,0.00
2019-02-19T04:47:21.094Z,0.00
2019-02-19T04:48:32.248Z,0.00
2019-02-19T04:49:43.376Z,0.00
2019-02-19T04:50:54.511Z,0.00
2019-02-19T04:52:06.661Z,0.00
2019-02-19T04:53:17.787Z,0.00
2019-02-19T04:54:28.924Z,0.00
2019-02-19T04:55:40.064Z,0.00
2019-02-19T04:56:52.191Z,0.00
2019-02-19T04:58:03.336Z,0.00
2019-02-19T04:59:14.462Z,0.00
2019-02-19T05:00:25.612Z,0.00
2019-02-19T05:01:36.760Z,0.00
2019-02-19T05:02:47.908Z,0.00
2019-02-19T05:03:59.036Z,0.00
2019-02-19T05:05:10.175Z,0.00
2019-02-19T05:06:20.812Z,0.00
2019-02-19T05:07:31.619Z,0.00
2019-02-19T05:08:44.539Z,0.00
2019-02-19T05:09:53.900Z,0.00
2019-02-19T05:11:05.039Z,0.00
2019-02-19T05:12:16.165Z,0.00
2019-02-19T05:13:27.344Z,0.00
2019-02-19T05:14:38.480Z,0.00
2019-02-19T05:15:49.630Z,0.00
2019-02-19T05:17:00.294Z,0.00
2019-02-19T05:18:11.442Z,0.00
2019-02-19T05:19:22.575Z,0.00
2019-02-19T05:20:33.729Z,0.00
2019-02-19T05:21:44.867Z,0.00
2019-02-19T05:22:56.014Z,0.00
2019-02-19T05:24:07.145Z,0.00
2019-02-19T05:25:18.291Z,0.00
2019-02-19T05:26:28.935Z,0.00
2019-02-19T05:27:40.085Z,0.00
2019-02-19T05:28:51.628Z,0.00
2019-02-19T05:30:02.768Z,0.00
2019-02-19T05:31:13.902Z,0.00
2019-02-19T05:32:25.034Z,0.00
2019-02-19T05:33:36.182Z,0.00
2019-02-19T05:34:47.331Z,0.00
2019-02-19T05:35:58.475Z,0.00
2019-02-19T05:37:09.613Z,0.00
2019-02-19T05:38:20.755Z,0.00
2019-02-19T05:39:31.904Z,0.00
2019-02-19T05:40:43.050Z,0.00
2019-02-19T05:41:54.215Z,0.00
2019-02-19T05:43:05.329Z,0.00
2019-02-19T05:44:16.480Z,0.00
2019-02-19T05:45:27.653Z,0.00
2019-02-19T05:46:38.798Z,0.00
2019-02-19T05:47:49.976Z,0.00
2019-02-19T05:49:01.119Z,0.00
2019-02-19T05:50:12.263Z,0.00
2019-02-19T05:51:23.397Z,0.00
2019-02-19T05:52:35.663Z,0.00
2019-02-19T05:53:46.789Z,0.00
2019-02-19T05:54:57.929Z,0.00
2019-02-19T05:56:09.099Z,0.00
2019-02-19T05:57:21.244Z,0.00
2019-02-19T05:58:32.399Z,0.00
2019-02-19T05:59:43.627Z,0.00
2019-02-19T06:00:54.782Z,0.00
2019-02-19T06:02:05.929Z,0.00
2019-02-19T06:03:17.080Z,0.00
2019-02-19T06:04:27.738Z,0.00
2019-02-19T06:05:38.872Z,0.00
2019-02-19T06:06:49.526Z,0.00
2019-02-19T06:08:00.660Z,0.00
2019-02-19T06:09:11.825Z,0.00
2019-02-19T06:10:22.982Z,0.00
2019-02-19T06:11:34.134Z,0.00
2019-02-19T06:12:46.281Z,0.00
2019-02-19T06:13:58.420Z,0.00
2019-02-19T06:15:10.563Z,0.00
2019-02-19T06:16:21.221Z,0.00
2019-02-19T06:17:32.389Z,0.00
2019-02-19T06:18:43.625Z,0.00
2019-02-19T06:19:54.790Z,0.00
2019-02-19T06:21:05.923Z,0.00
2019-02-19T06:22:17.074Z,0.00
2019-02-19T06:23:27.729Z,0.00
2019-02-19T06:24:38.887Z,5.63
2019-02-19T06:25:50.039Z,5.63
2019-02-19T06:27:01.194Z,5.63
2019-02-19T06:28:12.350Z,5.63
2019-02-19T06:29:23.623Z,5.63
2019-02-19T06:30:34.782Z,5.63
2019-02-19T06:31:45.951Z,0.00
2019-02-19T06:32:57.083Z,0.00
2019-02-19T06:34:08.272Z,0.00
2019-02-19T06:35:19.431Z,0.00
2019-02-19T06:36:30.587Z,0.00
2019-02-19T06:37:41.245Z,0.00
2019-02-19T06:38:52.400Z,0.00
2019-02-19T06:40:03.630Z,0.00
2019-02-19T06:41:14.777Z,0.00
2019-02-19T06:42:25.934Z,0.00
2019-02-19T06:43:37.089Z,0.00
2019-02-19T06:44:48.260Z,0.00
2019-02-19T06:45:59.413Z,0.00
2019-02-19T06:47:10.575Z,0.00
2019-02-19T06:48:21.723Z,0.00
2019-02-19T06:49:32.390Z,0.00
2019-02-19T06:50:43.634Z,0.00
2019-02-19T06:51:54.787Z,5.63
2019-02-19T06:53:05.946Z,5.63
2019-02-19T06:54:17.106Z,5.63
2019-02-19T06:55:28.269Z,5.63
2019-02-19T06:56:39.422Z,5.63
2019-02-19T06:57:50.586Z,5.63
2019-02-19T06:59:01.752Z,5.63
2019-02-19T07:00:12.416Z,5.63
2019-02-19T07:01:23.098Z,5.63
2019-02-19T07:02:34.257Z,5.63
2019-02-19T07:03:45.428Z,5.63
2019-02-19T07:04:56.592Z,5.63
2019-02-19T07:06:07.770Z,5.63
2019-02-19T07:07:18.429Z,11.25
2019-02-19T07:08:29.625Z,11.25
2019-02-19T07:09:40.793Z,11.25
2019-02-19T07:10:51.951Z,11.25
2019-02-19T07:12:03.124Z,11.25
2019-02-19T07:13:14.287Z,11.25
2019-02-19T07:14:25.622Z,5.63
2019-02-19T07:15:36.785Z,5.63
2019-02-19T07:16:48.036Z,5.63
2019-02-19T07:17:59.230Z,5.63
2019-02-19T07:19:10.406Z,5.63
2019-02-19T07:20:21.628Z,5.63
2019-02-19T07:21:32.315Z,11.25
2019-02-19T07:22:43.625Z,11.25
2019-02-19T07:24:04.203Z,11.25
2019-02-19T07:25:06.958Z,11.25
2019-02-19T07:26:18.133Z,11.25
2019-02-19T07:27:29.312Z,11.25
2019-02-19T07:28:40.491Z,11.25
2019-02-19T07:29:51.651Z,11.25
2019-02-19T07:31:02.349Z,11.25
2019-02-19T07:32:13.547Z,11.25
2019-02-19T07:33:24.726Z,11.25
2019-02-19T07:34:35.907Z,5.63
2019-02-19T07:35:47.085Z,5.63
2019-02-19T07:36:57.769Z,5.63
2019-02-19T07:38:08.948Z,5.63
2019-02-19T07:39:20.125Z,11.25
2019-02-19T07:40:31.103Z,11.25
2019-02-19T07:41:42.285Z,11.25
2019-02-19T07:42:53.638Z,16.88
2019-02-19T07:44:04.818Z,16.88
2019-02-19T07:45:16.004Z,16.88
2019-02-19T07:46:27.193Z,16.88
2019-02-19T07:47:38.367Z,16.88
2019-02-19T07:48:49.052Z,16.88
2019-02-19T07:50:00.302Z,16.88
2019-02-19T07:51:11.417Z,22.50
2019-02-19T07:52:22.597Z,16.88
2019-02-19T07:53:33.785Z,16.88
2019-02-19T07:54:44.974Z,16.88
2019-02-19T07:55:56.152Z,16.88
2019-02-19T07:57:07.331Z,16.88
2019-02-19T07:58:18.510Z,16.88
2019-02-19T07:59:29.705Z,16.88
2019-02-19T08:00:40.381Z,11.25
2019-02-19T08:01:51.635Z,11.25
2019-02-19T08:03:02.819Z,11.25
2019-02-19T08:04:14.012Z,11.25
2019-02-19T08:05:25.190Z,11.25
2019-02-19T08:06:36.393Z,11.25
2019-02-19T08:07:47.620Z,11.25
2019-02-19T08:08:58.802Z,11.25
2019-02-19T08:10:10.014Z,11.25
2019-02-19T08:11:21.188Z,11.25
2019-02-19T08:12:32.380Z,11.25
2019-02-19T08:13:43.570Z,11.25
2019-02-19T08:14:54.736Z,11.25
2019-02-19T08:16:05.938Z,11.25
2019-02-19T08:17:17.117Z,11.25
2019-02-19T08:18:28.324Z,11.25
2019-02-19T08:19:39.520Z,11.25
2019-02-19T08:20:50.694Z,16.88
2019-02-19T08:22:01.877Z,16.88
2019-02-19T08:23:12.571Z,16.88
2019-02-19T08:24:24.062Z,11.25
2019-02-19T08:25:35.236Z,11.25
2019-02-19T08:26:46.444Z,11.25
2019-02-19T08:27:57.620Z,11.25
2019-02-19T08:29:13.774Z,16.88
2019-02-19T08:30:20.021Z,16.88
2019-02-19T08:31:31.203Z,16.88
2019-02-19T08:32:42.386Z,16.88
2019-02-19T08:33:53.565Z,16.88
2019-02-19T08:35:04.763Z,16.88
2019-02-19T08:36:15.955Z,11.25
2019-02-19T08:37:27.377Z,11.25
2019-02-19T08:38:38.585Z,16.88
2019-02-19T08:39:49.796Z,16.88
2019-02-19T08:41:00.641Z,16.88
2019-02-19T08:42:11.911Z,16.88
2019-02-19T08:43:23.092Z,16.88
2019-02-19T08:44:34.278Z,16.88
2019-02-19T08:45:45.456Z,16.88
2019-02-19T08:46:56.660Z,16.88
2019-02-19T08:48:07.858Z,16.88
2019-02-19T08:49:19.044Z,16.88
2019-02-19T08:50:30.228Z,22.50
2019-02-19T08:51:41.421Z,22.50
2019-02-19T08:52:52.639Z,22.50
2019-02-19T08:54:03.825Z,28.13
2019-02-19T08:55:15.033Z,28.13
2019-02-19T08:56:26.224Z,28.13
2019-02-19T08:57:37.438Z,33.75
2019-02-19T08:58:48.623Z,28.13
2019-02-19T08:59:59.803Z,28.13
2019-02-19T09:01:11.289Z,28.13
2019-02-19T09:02:22.627Z,28.13
2019-02-19T09:03:33.810Z,28.13
2019-02-19T09:04:44.992Z,28.13
2019-02-19T09:05:56.179Z,28.13
2019-02-19T09:07:07.370Z,28.13
2019-02-19T09:08:18.626Z,28.13
2019-02-19T09:09:29.820Z,28.13
2019-02-19T09:10:41.002Z,28.13
2019-02-19T09:11:52.179Z,28.13
2019-02-19T09:13:03.371Z,33.75
2019-02-19T09:14:14.639Z,33.75
2019-02-19T09:15:25.839Z,33.75
2019-02-19T09:16:37.031Z,33.75
2019-02-19T09:17:51.935Z,33.75
2019-02-19T09:18:59.448Z,33.75
2019-02-19T09:20:10.641Z,39.38
2019-02-19T09:21:21.831Z,39.38
2019-02-19T09:22:33.020Z,39.38
2019-02-19T09:23:44.230Z,33.75
2019-02-19T09:24:55.421Z,33.75
2019-02-19T09:26:06.621Z,39.38
2019-02-19T09:27:17.807Z,45.00
2019-02-19T09:28:29.007Z,50.63
2019-02-19T09:29:40.203Z,56.25
2019-02-19T09:30:51.388Z,67.50
2019-02-19T09:32:02.649Z,78.75
2019-02-19T09:33:13.842Z,84.38
2019-02-19T09:34:25.038Z,90.00
2019-02-19T09:35:36.240Z,90.00
2019-02-19T09:36:47.430Z,78.75
2019-02-19T09:37:58.642Z,78.75
2019-02-19T09:39:10.057Z,78.75
2019-02-19T09:40:21.183Z,78.75
2019-02-19T09:41:32.390Z,78.75
2019-02-19T09:42:43.591Z,78.75
2019-02-19T09:43:54.783Z,73.13
2019-02-19T09:45:05.989Z,67.50
2019-02-19T09:46:17.191Z,56.25
2019-02-19T09:47:28.389Z,50.63
2019-02-19T09:48:39.597Z,50.63
2019-02-19T09:49:50.793Z,50.63
2019-02-19T09:51:01.980Z,56.25
2019-02-19T09:52:13.198Z,67.50
2019-02-19T09:53:24.409Z,78.75
2019-02-19T09:54:35.618Z,78.75
2019-02-19T09:55:46.820Z,67.50
2019-02-19T09:56:58.013Z,61.88
2019-02-19T09:58:09.818Z,61.88
2019-02-19T09:59:21.025Z,56.25
2019-02-19T10:00:32.232Z,50.63
2019-02-19T10:01:43.442Z,50.63
2019-02-19T10:02:54.640Z,50.63
2019-02-19T10:04:05.863Z,50.63
2019-02-19T10:05:17.050Z,50.63
2019-02-19T10:06:28.253Z,56.25
2019-02-19T10:07:39.465Z,61.88
2019-02-19T10:08:50.667Z,67.50
2019-02-19T10:10:01.885Z,78.75
2019-02-19T10:11:13.075Z,95.63
2019-02-19T10:12:24.284Z,101.25
2019-02-19T10:13:35.494Z,95.63
2019-02-19T10:14:46.707Z,84.38
2019-02-19T10:15:58.908Z,84.38
2019-02-19T10:17:10.111Z,90.00
2019-02-19T10:18:21.314Z,101.25
2019-02-19T10:19:32.630Z,112.50
2019-02-19T10:20:43.853Z,129.38
2019-02-19T10:21:55.048Z,140.63
2019-02-19T10:23:06.261Z,151.88
2019-02-19T10:24:17.484Z,168.75
2019-02-19T10:25:28.699Z,185.63
2019-02-19T10:26:40.706Z,174.38
2019-02-19T10:27:51.124Z,168.75
2019-02-19T10:29:02.350Z,191.25
2019-02-19T10:30:13.554Z,213.75
2019-02-19T10:31:24.772Z,219.38
2019-02-19T10:32:35.989Z,219.38
2019-02-19T10:33:47.222Z,225.00
2019-02-19T10:34:58.458Z,230.63
2019-02-19T10:36:09.683Z,253.13
2019-02-19T10:37:20.919Z,264.38
2019-02-19T10:38:32.145Z,253.13
2019-02-19T10:39:43.380Z,264.38
2019-02-19T10:40:54.623Z,303.75
2019-02-19T10:42:05.846Z,348.75
2019-02-19T10:43:17.075Z,309.38
2019-02-19T10:44:28.314Z,292.50
2019-02-19T10:45:39.565Z,275.63
2019-02-19T10:46:50.805Z,236.25
2019-02-19T10:48:03.034Z,225.00
2019-02-19T10:49:14.279Z,230.63
2019-02-19T10:50:25.558Z,202.50
2019-02-19T10:51:37.764Z,213.75
2019-02-19T10:52:51.691Z,236.25
2019-02-19T10:54:00.747Z,202.50
2019-02-19T10:55:11.995Z,213.75
2019-02-19T10:56:23.250Z,202.50
2019-02-19T10:57:34.618Z,208.13
2019-02-19T10:58:45.889Z,219.38
2019-02-19T10:59:57.140Z,180.00
2019-02-19T11:01:08.397Z,146.25
2019-02-19T11:02:19.654Z,191.25
2019-02-19T11:03:30.907Z,191.25
2019-02-19T11:04:42.163Z,168.75
2019-02-19T11:05:53.418Z,168.75
2019-02-19T11:07:04.681Z,219.38
2019-02-19T11:08:15.935Z,202.50
2019-02-19T11:09:27.179Z,135.00
2019-02-19T11:10:38.443Z,135.00
2019-02-19T11:11:49.685Z,135.00
2019-02-19T11:13:00.934Z,135.00
2019-02-19T11:14:12.178Z,151.88
2019-02-19T11:15:24.440Z,202.50
2019-02-19T11:16:35.679Z,191.25
2019-02-19T11:17:47.887Z,191.25
2019-02-19T11:18:59.141Z,168.75
2019-02-19T11:20:10.380Z,123.75
2019-02-19T11:21:21.631Z,129.38
2019-02-19T11:22:32.895Z,129.38
2019-02-19T11:23:44.138Z,129.38
2019-02-19T11:24:55.390Z,168.75
2019-02-19T11:26:06.644Z,202.50
2019-02-19T11:27:17.920Z,219.38
2019-02-19T11:28:29.608Z,253.13
2019-02-19T11:29:40.413Z,264.38
2019-02-19T11:30:51.668Z,303.75
2019-02-19T11:32:02.932Z,399.38
2019-02-19T11:33:14.209Z,579.38
2019-02-19T11:34:25.469Z,658.13
2019-02-19T11:35:36.752Z,630.00
2019-02-19T11:36:48.025Z,511.88
2019-02-19T11:37:59.290Z,506.25
2019-02-19T11:39:10.625Z,495.00
2019-02-19T11:40:21.935Z,528.75
2019-02-19T11:41:33.231Z,545.63
2019-02-19T11:42:44.529Z,573.75
2019-02-19T11:43:55.827Z,590.63
2019-02-19T11:45:07.143Z,652.50
2019-02-19T11:46:18.446Z,601.88
2019-02-19T11:47:29.764Z,663.75
2019-02-19T11:48:41.087Z,607.50
2019-02-19T11:49:52.398Z,703.13
2019-02-19T11:51:03.731Z,922.50
2019-02-19T11:52:15.066Z,877.50
2019-02-19T11:53:26.395Z,1113.75
2019-02-19T11:54:37.743Z,888.75
2019-02-19T11:55:49.103Z,545.63
2019-02-19T11:57:00.452Z,568.13
2019-02-19T11:58:11.828Z,1063.13
2019-02-19T11:59:24.159Z,905.63
2019-02-19T12:00:35.526Z,826.88
2019-02-19T12:01:46.907Z,697.50
2019-02-19T12:02:58.288Z,444.38
2019-02-19T12:04:09.668Z,742.50
2019-02-19T12:05:21.052Z,1113.75
2019-02-19T12:06:32.455Z,708.75
2019-02-19T12:07:43.857Z,596.25
2019-02-19T12:08:55.256Z,568.13
2019-02-19T12:10:06.653Z,545.63
2019-02-19T12:11:18.117Z,489.38
2019-02-19T12:12:29.433Z,556.88
2019-02-19T12:13:40.824Z,725.63
2019-02-19T12:14:51.736Z,804.38
2019-02-19T12:16:03.144Z,776.25
2019-02-19T12:17:14.635Z,517.50
2019-02-19T12:18:26.029Z,534.38
2019-02-19T12:19:37.433Z,556.88
2019-02-19T12:20:48.831Z,472.50
2019-02-19T12:22:00.242Z,652.50
2019-02-19T12:23:11.642Z,405.00
2019-02-19T12:24:23.046Z,393.75
2019-02-19T12:25:33.958Z,320.63
2019-02-19T12:26:45.372Z,365.63
2019-02-19T12:27:56.762Z,371.25
2019-02-19T12:29:08.151Z,236.25
2019-02-19T12:30:19.544Z,303.75
2019-02-19T12:31:30.937Z,281.25
2019-02-19T12:32:42.320Z,292.50
2019-02-19T12:33:53.700Z,225.00
2019-02-19T12:35:05.088Z,208.13
2019-02-19T12:36:16.981Z,1254.38
2019-02-19T12:37:28.359Z,826.88
2019-02-19T12:38:39.723Z,208.13
2019-02-19T12:39:51.102Z,168.75
2019-02-19T12:41:02.622Z,331.88
2019-02-19T12:42:14.005Z,191.25
2019-02-19T12:43:25.382Z,151.88
2019-02-19T12:44:36.755Z,185.63
2019-02-19T12:45:48.119Z,258.75
2019-02-19T12:46:58.995Z,219.38
2019-02-19T12:48:10.357Z,196.88
2019-02-19T12:49:21.725Z,191.25
2019-02-19T12:50:33.085Z,213.75
2019-02-19T12:51:44.427Z,213.75
2019-02-19T12:52:55.801Z,236.25
2019-02-19T12:54:07.167Z,264.38
2019-02-19T12:55:18.622Z,247.50
2019-02-19T12:56:29.971Z,208.13
2019-02-19T12:57:40.837Z,185.63
2019-02-19T12:58:52.186Z,163.13
2019-02-19T13:00:03.527Z,163.13
2019-02-19T13:01:16.120Z,202.50
2019-02-19T13:02:26.215Z,241.88
2019-02-19T13:03:37.554Z,641.25
2019-02-19T13:04:48.900Z,1822.50
2019-02-19T13:06:00.269Z,320.63
2019-02-19T13:07:11.644Z,236.25
2019-02-19T13:08:23.018Z,236.25
2019-02-19T13:09:34.367Z,298.13
2019-02-19T13:10:45.738Z,1372.50
2019-02-19T13:11:57.114Z,1839.38
2019-02-19T13:13:08.634Z,1935.00
2019-02-19T13:14:20.044Z,1788.75
2019-02-19T13:15:31.488Z,1608.75
2019-02-19T13:16:42.919Z,1856.25
2019-02-19T13:17:54.404Z,1530.00
2019-02-19T13:19:05.891Z,1569.38
2019-02-19T13:20:17.396Z,945.00
2019-02-19T13:21:28.901Z,1738.13
2019-02-19T13:22:40.443Z,1721.25
2019-02-19T13:23:51.980Z,1620.00
2019-02-19T13:25:03.536Z,1625.63
2019-02-19T13:26:15.112Z,1395.00
2019-02-19T13:27:26.705Z,714.38
2019-02-19T13:28:38.290Z,466.88
2019-02-19T13:29:49.875Z,438.75
2019-02-19T13:31:01.458Z,371.25
2019-02-19T13:32:13.026Z,309.38
2019-02-19T13:33:24.627Z,309.38
2019-02-19T13:34:36.186Z,298.13
2019-02-19T13:35:47.720Z,298.13
2019-02-19T13:36:59.255Z,292.50
2019-02-19T13:38:10.792Z,275.63
2019-02-19T13:39:22.334Z,258.75
2019-02-19T13:40:33.826Z,253.13
2019-02-19T13:41:45.326Z,264.38
2019-02-19T13:42:56.826Z,275.63
2019-02-19T13:44:08.326Z,264.38
2019-02-19T13:45:19.841Z,225.00
2019-02-19T13:46:31.301Z,264.38
2019-02-19T13:47:42.788Z,174.38
2019-02-19T13:48:55.270Z,180.00
2019-02-19T13:50:06.710Z,174.38
2019-02-19T13:51:18.163Z,163.13
2019-02-19T13:52:29.609Z,185.63
2019-02-19T13:53:41.052Z,241.88
2019-02-19T13:54:52.636Z,540.00
2019-02-19T13:56:04.080Z,506.25
2019-02-19T13:57:15.523Z,984.38
2019-02-19T13:58:27.970Z,230.63
2019-02-19T13:59:39.400Z,196.88
2019-02-19T14:00:50.831Z,191.25
2019-02-19T14:02:02.264Z,230.63
2019-02-19T14:03:13.688Z,894.38
2019-02-19T14:04:25.129Z,360.00
2019-02-19T14:05:36.560Z,348.75
2019-02-19T14:06:48.984Z,354.38
2019-02-19T14:08:00.422Z,1231.88
2019-02-19T14:09:11.868Z,1203.75
2019-02-19T14:10:23.331Z,337.50
2019-02-19T14:11:34.804Z,1186.88
2019-02-19T14:12:46.289Z,545.63
2019-02-19T14:13:58.032Z,646.88
2019-02-19T14:15:09.538Z,877.50
2019-02-19T14:16:21.016Z,337.50
2019-02-19T14:17:32.523Z,286.88
2019-02-19T14:18:44.028Z,303.75
2019-02-19T14:19:55.547Z,348.75
2019-02-19T14:21:07.034Z,506.25
2019-02-19T14:22:18.647Z,1046.25
2019-02-19T14:23:30.167Z,444.38
2019-02-19T14:24:41.690Z,804.38
2019-02-19T14:25:53.204Z,838.13
2019-02-19T14:27:04.737Z,810.00
2019-02-19T14:28:16.270Z,787.50
2019-02-19T14:29:27.797Z,697.50
2019-02-19T14:30:39.350Z,860.63
2019-02-19T14:31:50.884Z,821.25
2019-02-19T14:33:02.430Z,691.88
2019-02-19T14:34:14.985Z,573.75
2019-02-19T14:35:26.623Z,720.00
2019-02-19T14:36:38.189Z,675.00
2019-02-19T14:37:49.759Z,781.88
2019-02-19T14:39:01.339Z,860.63
2019-02-19T14:40:12.910Z,421.88
2019-02-19T14:41:24.618Z,787.50
2019-02-19T14:42:36.197Z,753.75
2019-02-19T14:43:47.789Z,826.88
2019-02-19T14:44:59.375Z,793.13
2019-02-19T14:46:10.960Z,770.63
2019-02-19T14:47:22.632Z,736.88
2019-02-19T14:48:34.238Z,720.00
2019-02-19T14:49:47.668Z,528.75
2019-02-19T14:50:58.431Z,691.88
2019-02-19T14:52:10.342Z,669.38
2019-02-19T14:53:21.943Z,652.50
2019-02-19T14:54:33.541Z,624.38
2019-02-19T14:55:46.143Z,618.75
2019-02-19T14:56:58.751Z,630.00
2019-02-19T14:58:10.365Z,607.50
2019-02-19T14:59:21.971Z,618.75
2019-02-19T15:00:33.585Z,646.88
2019-02-19T15:01:45.202Z,663.75
2019-02-19T15:02:56.818Z,641.25
2019-02-19T15:04:08.451Z,540.00
2019-02-19T15:05:20.125Z,236.25
2019-02-19T15:06:31.684Z,585.00
2019-02-19T15:07:43.308Z,523.13
2019-02-19T15:08:54.919Z,500.63
2019-02-19T15:10:06.634Z,450.00
2019-02-19T15:11:18.246Z,337.50
2019-02-19T15:12:29.846Z,258.75
2019-02-19T15:13:41.438Z,230.63
2019-02-19T15:14:53.040Z,213.75
2019-02-19T15:16:04.629Z,213.75
2019-02-19T15:17:16.209Z,230.63
2019-02-19T15:18:27.770Z,236.25
2019-02-19T15:19:39.636Z,241.88
2019-02-19T15:20:51.190Z,230.63